createdAt,value
2019-01-14T00:00:25.600Z,25.77
2019-01-14T00:02:52.644Z,28.00
2019-01-14T00:05:19.648Z,21.90
2019-01-14T00:07:46.746Z,30.17
2019-01-14T00:10:13.740Z,22.17
2019-01-14T00:12:40.739Z,24.57
2019-01-14T00:15:07.890Z,26.10
2019-01-14T00:17:34.934Z,21.77
2019-01-14T00:20:01.984Z,22.87
2019-01-14T00:22:29.037Z,23.43
2019-01-14T00:24:56.079Z,19.27
2019-01-14T00:27:24.971Z,24.87
2019-01-14T00:29:52.025Z,22.23
2019-01-14T00:32:19.070Z,26.57
2019-01-14T00:34:46.117Z,19.57
2019-01-14T00:37:13.171Z,18.53
2019-01-14T00:39:40.216Z,21.70
2019-01-14T00:42:07.263Z,15.97
2019-01-14T00:44:34.209Z,23.07
2019-01-14T00:47:01.258Z,24.57
2019-01-14T00:49:28.310Z,16.97
2019-01-14T00:51:59.655Z,23.37
2019-01-14T00:54:26.703Z,22.23
2019-01-14T00:56:53.854Z,16.13
2019-01-14T00:59:21.108Z,22.87
2019-01-14T01:01:48.155Z,23.67
2019-01-14T01:04:15.210Z,18.17
2019-01-14T01:06:42.457Z,27.63
2019-01-14T01:09:09.512Z,23.57
2019-01-14T01:11:36.509Z,18.93
2019-01-14T01:14:05.347Z,21.13
2019-01-14T01:16:32.905Z,21.63
2019-01-14T01:18:59.958Z,17.40
2019-01-14T01:21:27.001Z,11.87
2019-01-14T01:23:54.050Z,26.47
2019-01-14T01:26:21.106Z,22.73
2019-01-14T01:28:48.147Z,8.63
2019-01-14T01:31:15.195Z,17.03
2019-01-14T01:33:42.249Z,25.00
2019-01-14T01:36:09.292Z,26.13
2019-01-14T01:38:36.363Z,23.60
2019-01-14T01:41:03.398Z,24.00
2019-01-14T01:43:30.853Z,26.90
2019-01-14T01:45:59.947Z,14.20
2019-01-14T01:48:27.000Z,23.57
2019-01-14T01:50:54.090Z,13.87
2019-01-14T01:53:21.089Z,20.80
2019-01-14T01:55:48.146Z,22.73
2019-01-14T01:58:15.185Z,2.70
2019-01-14T02:00:42.233Z,21.60
2019-01-14T02:03:09.287Z,22.70
2019-01-14T02:05:36.349Z,22.97
2019-01-14T02:08:03.379Z,26.13
2019-01-14T02:10:30.433Z,19.17
2019-01-14T02:12:57.476Z,25.40
2019-01-14T02:15:24.525Z,25.90
2019-01-14T02:17:51.578Z,22.60
2019-01-14T02:20:18.573Z,15.93
2019-01-14T02:22:45.573Z,28.40
2019-01-14T02:25:13.128Z,28.37
2019-01-14T02:27:40.182Z,22.63
2019-01-14T02:30:07.231Z,25.03
2019-01-14T02:32:34.599Z,24.77
2019-01-14T02:35:01.546Z,30.00
2019-01-14T02:37:28.577Z,26.33
2019-01-14T02:39:56.034Z,26.73
2019-01-14T02:42:23.087Z,23.97
2019-01-14T02:44:50.130Z,27.60
2019-01-14T02:47:17.487Z,16.27
2019-01-14T02:49:44.539Z,23.37
2019-01-14T02:52:11.583Z,29.37
2019-01-14T02:54:39.043Z,6.73
2019-01-14T02:57:05.993Z,23.80
2019-01-14T02:59:33.043Z,22.53
2019-01-14T03:02:00.495Z,17.83
2019-01-14T03:04:29.287Z,6.23
2019-01-14T03:06:58.008Z,20.23
2019-01-14T03:09:23.896Z,14.83
2019-01-14T03:11:50.940Z,15.73
2019-01-14T03:14:18.007Z,19.90
2019-01-14T03:16:45.043Z,13.00
2019-01-14T03:19:12.040Z,3.37
2019-01-14T03:21:39.236Z,17.67
2019-01-14T03:24:08.230Z,13.50
2019-01-14T03:26:35.232Z,16.43
2019-01-14T03:29:02.224Z,16.50
2019-01-14T03:31:29.275Z,14.93
2019-01-14T03:33:56.327Z,12.97
2019-01-14T03:36:23.370Z,16.33
2019-01-14T03:38:50.417Z,13.30
2019-01-14T03:41:17.474Z,12.80
2019-01-14T03:43:44.623Z,16.63
2019-01-14T03:46:11.668Z,15.30
2019-01-14T03:48:38.721Z,15.20
2019-01-14T03:51:05.770Z,17.90
2019-01-14T03:53:32.813Z,14.80
2019-01-14T03:55:59.859Z,9.57
2019-01-14T03:58:26.806Z,9.67
2019-01-14T04:00:53.857Z,11.00
2019-01-14T04:03:20.912Z,12.87
2019-01-14T04:05:47.952Z,17.10
2019-01-14T04:08:15.825Z,15.17
2019-01-14T04:10:42.867Z,18.40
2019-01-14T04:13:09.919Z,12.40
2019-01-14T04:15:36.970Z,7.70
2019-01-14T04:18:03.909Z,4.53
2019-01-14T04:20:30.963Z,5.90
2019-01-14T04:22:58.010Z,12.53
2019-01-14T04:25:25.008Z,3.70
2019-01-14T04:27:52.001Z,2.10
2019-01-14T04:30:19.669Z,3.43
2019-01-14T04:32:46.727Z,10.20
2019-01-14T04:35:13.766Z,15.20
2019-01-14T04:37:41.022Z,19.80
2019-01-14T04:40:08.585Z,9.80
2019-01-14T04:42:35.218Z,14.27
2019-01-14T04:45:02.262Z,15.73
2019-01-14T04:47:29.316Z,13.93
2019-01-14T04:50:01.277Z,7.93
2019-01-14T04:52:28.323Z,7.93
2019-01-14T04:54:55.382Z,7.60
2019-01-14T04:57:22.370Z,7.73
2019-01-14T04:59:49.370Z,13.37
2019-01-14T05:02:16.414Z,9.57
2019-01-14T05:04:43.462Z,8.43
2019-01-14T05:07:10.515Z,12.10
2019-01-14T05:09:37.558Z,10.23
2019-01-14T05:12:04.608Z,13.83
2019-01-14T05:14:31.677Z,14.53
2019-01-14T05:19:40.144Z,7.53
2019-01-14T05:22:07.139Z,11.33
2019-01-14T05:24:34.142Z,12.27
2019-01-14T05:27:01.240Z,15.47
2019-01-14T05:29:28.282Z,11.70
2019-01-14T05:31:55.639Z,12.40
2019-01-14T05:34:22.583Z,9.03
2019-01-14T05:36:51.704Z,6.27
2019-01-14T05:39:18.729Z,14.00
2019-01-14T05:41:45.779Z,9.77
2019-01-14T05:44:12.831Z,11.10
2019-01-14T05:46:48.067Z,11.43
2019-01-14T05:49:15.120Z,8.60
2019-01-14T05:51:42.152Z,15.03
2019-01-14T05:54:09.211Z,11.37
2019-01-14T05:56:36.268Z,10.57
2019-01-14T05:59:03.310Z,5.60
2019-01-14T06:01:32.465Z,13.23
2019-01-14T06:03:59.425Z,11.20
2019-01-14T06:06:26.407Z,14.40
2019-01-14T06:08:53.864Z,7.53
2019-01-14T06:11:20.860Z,8.53
2019-01-14T06:13:47.955Z,9.37
2019-01-14T06:16:15.387Z,7.07
2019-01-14T06:18:42.364Z,17.37
2019-01-14T06:21:09.341Z,10.10
2019-01-14T06:23:36.617Z,9.90
2019-01-14T06:26:03.611Z,9.97
2019-01-14T06:28:30.658Z,5.53
2019-01-14T06:30:58.010Z,10.63
2019-01-14T06:33:25.102Z,5.40
2019-01-14T06:35:54.233Z,12.17
2019-01-14T06:38:21.210Z,10.17
2019-01-14T06:40:48.252Z,5.20
2019-01-14T06:43:15.300Z,3.63
2019-01-14T06:45:42.355Z,4.47
2019-01-14T06:48:09.398Z,8.70
2019-01-14T06:50:36.446Z,9.40
2019-01-14T06:53:03.500Z,12.77
2019-01-14T06:55:30.442Z,10.50
2019-01-14T06:57:57.494Z,2.97
2019-01-14T07:00:25.357Z,4.27
2019-01-14T07:02:52.411Z,12.50
2019-01-14T07:05:19.453Z,14.33
2019-01-14T07:07:46.501Z,9.03
2019-01-14T07:10:14.478Z,11.13
2019-01-14T07:12:41.522Z,11.63
2019-01-14T07:15:08.471Z,9.97
2019-01-14T07:17:35.514Z,8.60
2019-01-14T07:20:02.563Z,10.77
2019-01-14T07:22:29.617Z,15.33
2019-01-14T07:24:56.565Z,47.97
2019-01-14T07:27:23.622Z,7.63
2019-01-14T07:29:50.658Z,11.73
2019-01-14T07:32:19.143Z,7.87
2019-01-14T07:34:46.392Z,12.57
2019-01-14T07:37:13.444Z,7.13
2019-01-14T07:39:40.490Z,10.40
2019-01-14T07:42:07.487Z,11.00
2019-01-14T07:44:34.482Z,12.97
2019-01-14T07:47:01.530Z,9.70
2019-01-14T07:49:30.174Z,10.30
2019-01-14T07:51:57.163Z,4.87
2019-01-14T07:54:24.212Z,0.87
2019-01-14T07:56:51.203Z,5.57
2019-01-14T07:59:18.207Z,14.93
2019-01-14T08:01:45.151Z,9.60
2019-01-14T08:04:12.172Z,12.43
2019-01-14T08:06:39.257Z,11.17
2019-01-14T08:09:06.297Z,8.00
2019-01-14T08:11:33.345Z,7.57
2019-01-14T08:14:00.437Z,8.97
2019-01-14T08:16:27.445Z,8.27
2019-01-14T08:18:54.490Z,13.00
2019-01-14T08:21:21.546Z,8.40
2019-01-14T08:23:48.588Z,3.87
2019-01-14T08:26:15.637Z,4.53
2019-01-14T08:28:42.665Z,1.50
2019-01-14T08:31:09.630Z,1.77
2019-01-14T08:33:36.706Z,3.90
2019-01-14T08:36:03.730Z,5.30
2019-01-14T08:38:30.775Z,11.93
2019-01-14T08:40:57.829Z,11.50
2019-01-14T08:43:24.876Z,5.47
2019-01-14T08:45:51.921Z,11.67
2019-01-14T08:48:18.975Z,12.23
2019-01-14T08:50:46.018Z,2.57
2019-01-14T08:53:13.066Z,19.17
2019-01-14T08:55:40.379Z,15.00
2019-01-14T08:58:07.473Z,23.20
2019-01-14T09:00:34.518Z,12.17
2019-01-14T09:03:01.601Z,14.57
2019-01-14T09:05:28.768Z,15.80
2019-01-14T09:07:55.874Z,28.47
2019-01-14T09:10:22.919Z,14.77
2019-01-14T09:12:49.965Z,14.53
2019-01-14T09:15:17.021Z,4.20
2019-01-14T09:17:44.086Z,29.53
2019-01-14T09:20:13.169Z,1.27
2019-01-14T09:22:40.209Z,7.47
2019-01-14T09:25:07.258Z,17.10
2019-01-14T09:27:34.311Z,13.33
2019-01-14T09:30:01.354Z,13.70
2019-01-14T09:32:28.404Z,41.93
2019-01-14T09:34:55.456Z,20.30
2019-01-14T09:37:22.509Z,24.43
2019-01-14T09:39:49.549Z,17.77
2019-01-14T09:42:16.542Z,27.97
2019-01-14T09:44:43.543Z,21.40
2019-01-14T09:47:10.712Z,16.67
2019-01-14T09:49:37.870Z,14.97
2019-01-14T09:52:05.333Z,20.07
2019-01-14T09:54:32.358Z,14.77
2019-01-14T09:56:59.400Z,23.43
2019-01-14T09:59:26.448Z,21.77
2019-01-14T10:01:55.548Z,21.23
2019-01-14T10:04:22.669Z,22.97
2019-01-14T10:06:49.574Z,22.70
2019-01-14T10:09:16.589Z,22.40
2019-01-14T10:11:43.643Z,21.30
2019-01-14T10:14:10.687Z,20.90
2019-01-14T10:16:37.740Z,24.53
2019-01-14T10:19:04.786Z,22.17
2019-01-14T10:21:32.250Z,22.80
2019-01-14T10:23:59.402Z,24.50
2019-01-14T10:26:26.444Z,28.33
2019-01-14T10:28:53.571Z,32.50
2019-01-14T10:31:20.694Z,24.90
2019-01-14T10:33:47.947Z,27.37
2019-01-14T10:36:15.043Z,19.43
2019-01-14T10:38:42.104Z,22.67
2019-01-14T10:41:09.243Z,18.50
2019-01-14T10:43:36.299Z,21.20
2019-01-14T10:46:03.341Z,27.00
2019-01-14T10:48:30.341Z,29.00
2019-01-14T10:50:57.334Z,30.43
2019-01-14T10:53:24.486Z,32.87
2019-01-14T10:55:51.535Z,29.30
2019-01-14T10:58:18.588Z,11.33
2019-01-14T11:00:45.631Z,13.67
2019-01-14T11:03:13.909Z,26.13
2019-01-14T11:05:41.060Z,29.37
2019-01-14T11:08:09.396Z,16.50
2019-01-14T11:10:36.397Z,30.03
2019-01-14T11:13:03.433Z,28.93
2019-01-14T11:15:30.489Z,21.67
2019-01-14T11:17:57.429Z,25.20
2019-01-14T11:20:25.404Z,25.80
2019-01-14T11:22:52.449Z,31.47
2019-01-14T11:25:24.257Z,14.83
2019-01-14T11:27:53.000Z,39.97
2019-01-14T11:30:20.044Z,22.67
2019-01-14T11:32:47.810Z,33.77
2019-01-14T11:35:14.861Z,12.80
2019-01-14T11:37:41.912Z,18.87
2019-01-14T11:40:08.957Z,24.43
2019-01-14T11:42:36.004Z,21.93
2019-01-14T11:45:03.058Z,35.00
2019-01-14T11:47:30.053Z,14.63
2019-01-14T11:49:56.997Z,12.07
2019-01-14T11:52:23.993Z,25.37
2019-01-14T11:54:51.049Z,41.30
2019-01-14T11:57:18.090Z,34.23
2019-01-14T11:59:45.141Z,28.33
2019-01-14T12:02:12.193Z,15.80
2019-01-14T12:04:39.237Z,34.40
2019-01-14T12:07:06.284Z,13.37
2019-01-14T12:09:33.338Z,34.83
2019-01-14T12:12:00.381Z,28.60
2019-01-14T12:14:27.383Z,14.03
2019-01-14T12:16:54.376Z,25.73
2019-01-14T12:19:21.733Z,39.60
2019-01-14T12:21:48.785Z,29.33
2019-01-14T12:24:15.782Z,34.67
2019-01-14T12:26:42.780Z,33.47
2019-01-14T12:29:09.824Z,44.63
2019-01-14T12:31:36.891Z,34.57
2019-01-14T12:34:03.928Z,40.70
2019-01-14T12:36:30.968Z,37.77
2019-01-14T12:38:58.018Z,13.03
2019-01-14T12:41:25.071Z,41.33
2019-01-14T12:43:52.115Z,46.17
2019-01-14T12:46:19.164Z,19.67
2019-01-14T12:48:46.217Z,36.57
2019-01-14T12:51:13.261Z,12.23
2019-01-14T12:53:40.308Z,40.50
2019-01-14T12:56:08.074Z,19.27
2019-01-14T12:58:35.128Z,24.00
2019-01-14T13:01:02.172Z,41.10
2019-01-14T13:03:29.527Z,32.77
2019-01-14T13:05:56.585Z,45.27
2019-01-14T13:08:23.624Z,39.20
2019-01-14T13:10:50.673Z,41.90
2019-01-14T13:13:17.726Z,43.17
2019-01-14T13:15:44.789Z,46.13
2019-01-14T13:18:11.820Z,44.30
2019-01-14T13:20:38.874Z,47.63
2019-01-14T13:23:05.917Z,46.13
2019-01-14T13:25:32.966Z,48.03
2019-01-14T13:28:01.143Z,51.43
2019-01-14T13:30:28.266Z,52.37
2019-01-14T13:32:55.342Z,45.50
2019-01-14T13:35:22.333Z,47.83
2019-01-14T13:37:49.435Z,51.50
2019-01-14T13:40:16.484Z,49.93
2019-01-14T13:42:43.634Z,49.50
2019-01-14T13:45:11.554Z,46.83
2019-01-14T13:47:38.551Z,44.07
2019-01-14T13:50:05.818Z,51.07
2019-01-14T13:52:32.853Z,55.77
2019-01-14T13:55:00.007Z,47.30
2019-01-14T13:57:27.059Z,46.87
2019-01-14T13:59:54.102Z,50.27
2019-01-14T14:02:21.220Z,51.17
2019-01-14T14:04:48.305Z,48.80
2019-01-14T14:07:15.355Z,46.20
2019-01-14T14:09:42.606Z,52.10
2019-01-14T14:12:09.857Z,49.70
2019-01-14T14:14:36.919Z,44.80
2019-01-14T14:17:03.918Z,48.57
2019-01-14T14:19:30.905Z,50.37
2019-01-14T14:21:58.050Z,45.47
2019-01-14T14:24:25.126Z,49.00
2019-01-14T14:26:52.099Z,47.10
2019-01-14T14:29:19.298Z,47.03
2019-01-14T14:31:46.347Z,48.40
2019-01-14T14:34:13.345Z,48.63
2019-01-14T14:36:42.492Z,47.13
2019-01-14T14:39:09.562Z,50.00
2019-01-14T14:41:36.588Z,47.87
2019-01-14T14:44:05.383Z,48.97
2019-01-14T14:46:32.426Z,49.57
2019-01-14T14:49:01.221Z,51.63
2019-01-14T14:51:28.221Z,53.30
2019-01-14T14:53:55.215Z,52.50
2019-01-14T14:56:22.262Z,53.03
2019-01-14T14:58:49.307Z,50.63
2019-01-14T15:01:16.361Z,52.93
2019-01-14T15:03:43.302Z,52.97
2019-01-14T15:06:10.356Z,50.70
2019-01-14T15:08:37.404Z,52.83
2019-01-14T15:11:04.448Z,54.40
2019-01-14T15:13:31.502Z,54.73
2019-01-14T15:15:58.545Z,62.80
2019-01-14T15:18:25.594Z,70.40
2019-01-14T15:20:52.744Z,55.50
2019-01-14T15:23:19.798Z,51.40
2019-01-14T15:25:46.841Z,57.10
2019-01-14T15:28:13.891Z,53.60
2019-01-14T15:30:40.944Z,63.90
2019-01-14T15:33:08.101Z,55.00
2019-01-14T15:35:35.139Z,56.17
2019-01-14T15:38:02.305Z,58.17
2019-01-14T15:40:29.337Z,99.63
2019-01-14T15:42:56.406Z,86.57
2019-01-14T15:45:23.564Z,63.90
2019-01-14T15:47:50.586Z,55.53
2019-01-14T15:50:17.538Z,55.17
2019-01-14T15:52:44.581Z,53.47
2019-01-14T15:55:11.630Z,53.20
2019-01-14T15:57:40.420Z,51.10
2019-01-14T16:00:15.299Z,51.47
2019-01-14T16:02:42.297Z,58.27
2019-01-14T16:05:09.244Z,53.03
2019-01-14T16:07:36.295Z,49.07
2019-01-14T16:10:10.344Z,52.40
2019-01-14T16:12:30.599Z,51.70
2019-01-14T16:14:59.285Z,49.63
2019-01-14T16:17:26.280Z,47.50
2019-01-14T16:19:53.280Z,43.67
2019-01-14T16:22:20.332Z,51.03
2019-01-14T16:24:47.374Z,49.60
2019-01-14T16:27:14.379Z,56.67
2019-01-14T16:29:43.416Z,55.17
2019-01-14T16:32:10.811Z,52.00
2019-01-14T16:34:37.820Z,53.63
2019-01-14T16:37:08.658Z,46.80
2019-01-14T16:39:36.552Z,45.37
2019-01-14T16:42:04.088Z,51.57
2019-01-14T16:44:31.140Z,45.73
2019-01-14T16:46:59.003Z,48.20
2019-01-14T16:49:27.689Z,56.47
2019-01-14T16:51:54.743Z,57.37
2019-01-14T16:54:21.788Z,51.63
2019-01-14T16:56:49.658Z,57.57
2019-01-14T16:59:16.702Z,54.17
2019-01-14T17:01:43.752Z,43.20
2019-01-14T17:04:10.902Z,40.40
2019-01-14T17:06:37.956Z,43.77
2019-01-14T17:09:05.112Z,50.00
2019-01-14T17:14:15.281Z,56.77
2019-01-14T17:16:42.534Z,57.90
2019-01-14T17:19:20.210Z,59.67
2019-01-14T17:21:47.281Z,89.27
2019-01-14T17:24:14.324Z,70.50
2019-01-14T17:26:41.374Z,73.03
2019-01-14T17:29:08.732Z,59.87
2019-01-14T17:31:35.885Z,55.13
2019-01-14T17:34:02.928Z,54.17
2019-01-14T17:36:29.978Z,58.90
2019-01-14T17:38:57.031Z,68.30
2019-01-14T17:41:24.075Z,74.07
2019-01-14T17:43:51.025Z,72.07
2019-01-14T17:46:18.069Z,169.97
2019-01-14T17:48:45.117Z,82.23
2019-01-14T17:51:12.171Z,69.90
2019-01-14T17:53:39.169Z,71.80
2019-01-14T17:56:06.220Z,59.90
2019-01-14T17:58:33.210Z,69.60
2019-01-14T18:01:00.262Z,61.33
2019-01-14T18:03:27.779Z,56.77
2019-01-14T18:05:54.770Z,50.73
2019-01-14T18:08:22.940Z,57.67
2019-01-14T18:10:49.994Z,52.30
2019-01-14T18:13:17.036Z,46.00
2019-01-14T18:15:44.128Z,49.97
2019-01-14T18:18:11.139Z,56.67
2019-01-14T18:20:38.340Z,57.87
2019-01-14T18:23:05.441Z,47.97
2019-01-14T18:25:32.484Z,49.40
2019-01-14T18:27:59.734Z,47.67
2019-01-14T18:30:26.683Z,59.63
2019-01-14T18:32:53.735Z,59.00
2019-01-14T18:35:21.502Z,55.60
2019-01-14T18:37:50.287Z,59.03
2019-01-14T18:40:18.921Z,68.30
2019-01-14T18:42:45.065Z,62.40
2019-01-14T18:45:13.029Z,73.63
2019-01-14T18:47:40.119Z,59.17
2019-01-14T18:50:08.860Z,57.67
2019-01-14T18:52:35.862Z,60.90
2019-01-14T18:55:02.913Z,122.17
2019-01-14T18:57:29.952Z,70.40
2019-01-14T18:59:57.057Z,61.80
2019-01-14T19:02:24.157Z,64.37
2019-01-14T19:04:51.201Z,62.87
2019-01-14T19:07:18.253Z,62.97
2019-01-14T19:09:45.305Z,62.23
2019-01-14T19:12:12.243Z,60.70
2019-01-14T19:14:39.297Z,71.73
2019-01-14T19:17:06.344Z,64.80
2019-01-14T19:19:35.025Z,61.53
2019-01-14T19:22:03.245Z,65.17
2019-01-14T19:24:32.253Z,51.67
2019-01-14T19:26:59.197Z,61.13
2019-01-14T19:29:29.544Z,54.60
2019-01-14T19:31:59.940Z,59.93
2019-01-14T19:34:27.268Z,42.23
2019-01-14T19:36:54.325Z,41.13
2019-01-14T19:39:21.348Z,44.53
2019-01-14T19:41:52.343Z,33.50
2019-01-14T19:44:19.644Z,51.20
2019-01-14T19:46:46.698Z,51.23
2019-01-14T19:49:13.901Z,50.03
2019-01-14T19:51:41.309Z,50.37
2019-01-14T19:54:08.731Z,47.10
2019-01-14T19:56:35.981Z,51.93
2019-01-14T19:59:03.066Z,46.67
2019-01-14T20:01:30.109Z,45.00
2019-01-14T20:03:57.160Z,28.53
2019-01-14T20:06:24.213Z,43.43
2019-01-14T20:08:51.257Z,46.70
2019-01-14T20:11:22.922Z,40.00
2019-01-14T20:13:54.701Z,46.37
2019-01-14T20:16:26.881Z,26.80
2019-01-14T20:18:58.009Z,12.43
2019-01-14T20:21:26.058Z,15.33
2019-01-14T20:23:57.712Z,9.50
2019-01-14T20:26:27.287Z,5.37
2019-01-14T20:28:54.271Z,3.20
2019-01-14T20:31:21.320Z,2.47
2019-01-14T20:33:48.879Z,0.50
2019-01-14T20:36:15.928Z,1.10
2019-01-14T20:38:42.925Z,0.43
2019-01-14T20:41:16.327Z,2.30
2019-01-14T20:43:37.174Z,0.63
2019-01-14T20:46:04.247Z,1.57
2019-01-14T20:48:31.276Z,1.50
2019-01-14T20:51:00.163Z,0.70
2019-01-14T20:53:27.214Z,0.60
2019-01-14T20:55:54.213Z,1.20
2019-01-14T20:58:21.207Z,0.87
2019-01-14T21:00:48.259Z,2.07
2019-01-14T21:03:15.546Z,2.57
2019-01-14T21:05:42.501Z,0.50
2019-01-14T21:08:09.502Z,4.70
2019-01-14T21:10:36.556Z,5.57
2019-01-14T21:13:03.601Z,2.97
2019-01-14T21:15:30.648Z,1.90
2019-01-14T21:17:57.703Z,1.43
2019-01-14T21:20:24.746Z,2.57
2019-01-14T21:22:52.410Z,4.63
2019-01-14T21:25:19.465Z,5.83
2019-01-14T21:27:46.505Z,10.80
2019-01-14T21:30:15.545Z,3.70
2019-01-14T21:32:42.857Z,3.10
2019-01-14T21:35:09.801Z,3.17
2019-01-14T21:37:36.849Z,2.93
2019-01-14T21:40:04.616Z,4.37
2019-01-14T21:42:31.613Z,1.77
2019-01-14T21:44:58.559Z,4.10
2019-01-14T21:47:32.501Z,12.27
2019-01-14T21:49:53.869Z,1.70
2019-01-14T21:52:20.986Z,2.17
2019-01-14T21:54:48.041Z,1.90
2019-01-14T21:57:15.080Z,1.60
2019-01-14T21:59:42.132Z,1.80
2019-01-14T22:02:09.185Z,2.40
2019-01-14T22:04:36.232Z,4.80
2019-01-14T22:07:04.044Z,1.83
2019-01-14T22:09:31.049Z,1.50
2019-01-14T22:11:57.993Z,1.00
2019-01-14T22:14:25.039Z,5.63
2019-01-14T22:16:52.091Z,6.13
2019-01-14T22:19:19.083Z,4.23
2019-01-14T22:21:46.096Z,2.97
2019-01-14T22:24:13.128Z,2.70
2019-01-14T22:26:40.177Z,1.67
2019-01-14T22:29:07.230Z,0.67
2019-01-14T22:31:34.273Z,0.80
2019-01-14T22:34:01.322Z,0.33
2019-01-14T22:36:28.990Z,1.07
2019-01-14T22:38:56.034Z,1.60
2019-01-14T22:41:22.986Z,1.07
2019-01-14T22:43:50.027Z,1.33
2019-01-14T22:46:17.461Z,1.13
2019-01-14T22:48:45.666Z,4.43
2019-01-14T22:51:12.709Z,1.63
2019-01-14T22:53:39.759Z,1.47
2019-01-14T22:56:06.812Z,2.47
2019-01-14T22:58:33.855Z,1.00
2019-01-14T23:01:23.512Z,0.80
2019-01-14T23:04:10.396Z,1.10
2019-01-14T23:06:37.411Z,0.77
2019-01-14T23:09:04.549Z,1.30
2019-01-14T23:11:31.594Z,0.90
2019-01-14T23:13:58.725Z,1.70
2019-01-14T23:16:25.691Z,1.47
2019-01-14T23:18:52.740Z,1.43
2019-01-14T23:21:19.793Z,1.50
2019-01-14T23:23:46.788Z,1.47
2019-01-14T23:26:13.729Z,0.83
2019-01-14T23:28:41.600Z,1.30
2019-01-14T23:31:10.244Z,1.00
2019-01-14T23:33:37.283Z,1.10
2019-01-14T23:36:04.332Z,1.23
2019-01-14T23:38:32.099Z,1.33
2019-01-14T23:40:59.150Z,0.63
2019-01-14T23:43:26.194Z,2.83
2019-01-14T23:45:53.604Z,1.10
2019-01-14T23:48:20.604Z,0.40
2019-01-14T23:50:47.647Z,1.07
2019-01-14T23:53:15.004Z,0.60
2019-01-14T23:55:42.056Z,0.60
2019-01-14T23:58:09.100Z,1.03
